Time;durP1;ratioP1;P1;durP2;ratioP2;P2;SDS_P1;SDS_P2;PMS_P1;PMS_P2;Temp;Humidity;BMP_temperature;BMP_pressure;BME280_temperature;BME280_humidity;BME280_pressure;Samples;Min_cycle;Max_cycle;Signal;HPM_P1;HPM_P2
2022/09/08 00:01:44;;;;;;;15.20;5.20;;;;;;;20.49;90.36;100959.81;5064147;28;20119;-67
2022/09/08 00:04:10;;;;;;;14.80;6.05;;;;;;;20.50;89.89;100956.19;5044570;28;20040;-66
2022/09/08 00:06:35;;;;;;;12.52;5.50;;;;;;;20.51;90.09;100956.06;5063880;28;20453;-66
2022/09/08 00:09:01;;;;;;;12.00;5.72;;;;;;;20.54;89.53;100957.66;5063191;28;20021;-66
2022/09/08 00:11:31;;;;;;;15.88;6.50;;;;;;;20.48;90.01;100953.63;5075177;28;20024;-66
2022/09/08 00:13:58;;;;;;;12.35;6.20;;;;;;;20.47;90.09;100948.38;5084236;28;20023;-65
2022/09/08 00:16:23;;;;;;;15.70;5.93;;;;;;;20.43;90.53;100951.28;5083507;28;20119;-65
2022/09/08 00:18:50;;;;;;;17.35;6.47;;;;;;;20.45;90.36;100954.72;5066477;28;20103;-66
2022/09/08 00:21:17;;;;;;;13.77;5.45;;;;;;;20.47;90.56;100948.38;5081125;28;20028;-66
2022/09/08 00:23:42;;;;;;;14.40;5.57;;;;;;;20.47;90.47;100946.56;5063191;28;20021;-66
2022/09/08 00:26:08;;;;;;;18.58;6.47;;;;;;;20.43;91.21;100939.72;5063120;28;20584;-67
2022/09/08 00:28:33;;;;;;;19.92;7.07;;;;;;;20.44;91.07;100931.56;5063285;28;20033;-66
2022/09/08 00:30:59;;;;;;;12.32;5.78;;;;;;;20.49;90.89;100930.38;5063836;28;20025;-66
2022/09/08 00:33:25;;;;;;;17.23;6.53;;;;;;;20.43;91.42;100932.53;5074730;28;20111;-66
2022/09/08 00:35:51;;;;;;;16.52;6.03;;;;;;;20.48;90.86;100929.53;5084391;28;20553;-67
2022/09/08 00:38:19;;;;;;;23.35;6.63;;;;;;;20.50;91.13;100926.75;5082399;28;20020;-66
2022/09/08 00:40:45;;;;;;;17.98;6.47;;;;;;;20.50;90.68;100932.94;5075938;28;20689;-66
2022/09/08 00:43:30;;;;;;;13.98;5.05;;;;;;;20.55;90.77;100929.91;5062867;28;20078;-66
2022/09/08 00:45:55;;;;;;;16.63;5.93;;;;;;;20.55;90.24;100930.78;5045179;28;20013;-65
2022/09/08 00:48:21;;;;;;;12.38;5.75;;;;;;;20.61;89.86;100924.09;5064352;28;20027;-66
2022/09/08 00:50:47;;;;;;;18.10;5.68;;;;;;;20.70;89.69;100906.47;5062128;28;20116;-66
2022/09/08 00:53:15;;;;;;;14.75;5.97;;;;;;;20.69;89.49;100907.47;5065922;28;20017;-65
2022/09/08 00:55:40;;;;;;;16.52;5.82;;;;;;;20.65;90.30;100900.63;5047970;28;20028;-67
2022/09/08 00:58:06;;;;;;;21.30;7.40;;;;;;;20.64;90.15;100907.81;5066860;28;20028;-66
2022/09/08 01:00:35;;;;;;;15.68;6.25;;;;;;;20.64;90.11;100898.91;5066650;28;20501;-69
2022/09/08 01:03:00;;;;;;;13.93;6.43;;;;;;;20.71;89.51;100894.81;5047804;28;20035;-66
2022/09/08 01:05:37;;;;;;;18.88;7.03;;;;;;;20.66;90.28;100892.50;5078301;28;20306;-67
2022/09/08 01:14:12;;;;;;;15.05;6.55;;;;;;;20.65;90.30;100890.75;5046070;28;20172;-65
2022/09/08 01:16:41;;;;;;;16.27;7.22;;;;;;;20.67;90.96;100891.50;5046478;28;20522;-67
2022/09/08 01:19:13;;;;;;;19.40;7.18;;;;;;;20.72;90.80;100893.84;5046549;28;20025;-66
2022/09/08 01:21:55;;;;;;;14.38;6.00;;;;;;;20.79;90.42;100902.25;5052480;28;20068;-66
2022/09/08 01:24:29;;;;;;;13.45;7.03;;;;;;;20.86;89.74;100905.31;5064301;28;20032;-65
2022/09/08 01:27:13;;;;;;;12.35;5.75;;;;;;;20.86;90.67;100900.78;5064820;28;20016;-65
2022/09/08 01:29:40;;;;;;;14.23;7.22;;;;;;;20.82;90.51;100910.03;5055449;28;20547;-67
2022/09/08 01:32:07;;;;;;;17.15;6.88;;;;;;;20.87;90.30;100896.31;5045395;28;20471;-66
2022/09/08 01:34:43;;;;;;;16.38;6.40;;;;;;;20.88;90.31;100892.66;5044630;28;20033;-66
2022/09/08 01:37:08;;;;;;;19.25;6.38;;;;;;;20.83;90.22;100898.38;5046384;28;20025;-66
2022/09/08 01:39:34;;;;;;;13.90;7.03;;;;;;;20.81;90.21;100892.28;5046127;28;20031;-66
2022/09/08 01:42:00;;;;;;;16.73;7.10;;;;;;;20.82;90.26;100902.00;5045628;28;20035;-66
2022/09/08 01:44:28;;;;;;;12.10;6.00;;;;;;;20.89;89.60;100895.22;5045125;28;20545;-66
2022/09/08 01:46:54;;;;;;;13.00;6.38;;;;;;;20.96;89.40;100887.59;5046954;28;20044;-66
2022/09/08 01:49:19;;;;;;;12.65;7.03;;;;;;;21.00;88.66;100896.22;5046450;28;20025;-68
2022/09/08 01:51:44;;;;;;;20.65;7.47;;;;;;;21.03;88.41;100904.03;5057695;28;20043;-66
2022/09/08 01:54:10;;;;;;;17.60;8.75;;;;;;;20.90;88.89;100888.94;5065641;28;20025;-67
2022/09/08 01:56:35;;;;;;;14.48;7.93;;;;;;;20.98;88.47;100891.00;5065325;28;20048;-66
2022/09/08 01:59:01;;;;;;;15.32;8.48;;;;;;;20.86;88.55;100902.63;5065541;28;20386;-66
2022/09/08 02:01:26;;;;;;;13.52;7.53;;;;;;;20.81;88.96;100903.00;5066428;28;20032;-66
2022/09/08 02:03:52;;;;;;;16.02;8.27;;;;;;;20.79;89.40;100903.09;5065577;28;20107;-66
2022/09/08 02:06:17;;;;;;;18.20;8.43;;;;;;;20.84;89.14;100903.59;5065633;28;20060;-66
2022/09/08 02:08:43;;;;;;;15.20;7.47;;;;;;;20.93;88.51;100891.38;5065674;28;20701;-66
2022/09/08 02:11:09;;;;;;;15.73;8.05;;;;;;;20.85;88.55;100888.38;5065368;28;20048;-66
2022/09/08 02:13:34;;;;;;;18.63;8.52;;;;;;;20.85;87.98;100875.00;5066134;28;20032;-66
2022/09/08 02:16:02;;;;;;;16.70;7.85;;;;;;;20.76;88.33;100887.28;5065745;28;20033;-66
2022/09/08 02:18:29;;;;;;;16.25;7.60;;;;;;;20.76;88.35;100879.25;5065694;28;20059;-65
2022/09/08 02:21:15;;;;;;;19.98;8.40;;;;;;;20.72;89.02;100883.13;5064299;28;20028;-65
2022/09/08 02:23:44;;;;;;;15.95;8.35;;;;;;;20.73;88.83;100878.63;5064192;28;20033;-66
2022/09/08 02:26:17;;;;;;;13.97;7.63;;;;;;;20.69;88.52;100880.69;5066056;28;20025;-67
2022/09/08 02:28:42;;;;;;;21.85;8.30;;;;;;;20.69;88.82;100878.00;5064733;28;20315;-65
2022/09/08 02:31:07;;;;;;;19.95;8.15;;;;;;;20.73;88.39;100867.91;5058111;28;20064;-67
2022/09/08 02:33:33;;;;;;;17.40;7.43;;;;;;;20.75;87.80;100864.16;5063254;28;20383;-67
2022/09/08 02:35:59;;;;;;;11.05;6.28;;;;;;;20.81;87.38;100870.84;5064917;28;20117;-66
2022/09/08 02:38:25;;;;;;;12.60;7.68;;;;;;;20.84;87.32;100866.09;5063297;28;20108;-66
2022/09/08 02:40:50;;;;;;;14.45;6.88;;;;;;;20.71;87.60;100850.16;5060105;28;20020;-67
2022/09/08 02:43:16;;;;;;;14.93;6.22;;;;;;;20.78;87.17;100855.03;5045645;28;20500;-66
2022/09/08 02:45:41;;;;;;;12.15;6.55;;;;;;;20.75;86.69;100852.59;5044420;28;20021;-66
2022/09/08 02:48:07;;;;;;;12.30;6.20;;;;;;;20.70;86.88;100859.16;5044912;28;20033;-66
2022/09/08 02:50:33;;;;;;;12.48;5.53;;;;;;;20.75;86.87;100858.81;5045233;28;20025;-66
2022/09/08 02:52:58;;;;;;;17.92;5.65;;;;;;;20.62;86.49;100860.72;5051200;28;20128;-66
2022/09/08 02:55:23;;;;;;;16.15;5.13;;;;;;;20.64;87.14;100854.28;5064580;28;20016;-66
2022/09/08 02:57:52;;;;;;;11.52;4.50;;;;;;;20.70;86.79;100856.47;5064637;28;20043;-67
2022/09/08 03:00:18;;;;;;;10.30;4.10;;;;;;;20.65;86.54;100857.81;5045269;28;20076;-67
2022/09/08 03:02:44;;;;;;;8.63;4.70;;;;;;;20.66;86.61;100846.97;5044713;28;20051;-67
2022/09/08 03:05:10;;;;;;;18.98;4.45;;;;;;;20.47;87.72;100846.69;5045250;28;20048;-67
2022/09/08 03:07:36;;;;;;;9.68;3.42;;;;;;;20.50;87.14;100846.44;5044462;28;20402;-64
2022/09/08 03:10:04;;;;;;;12.07;3.67;;;;;;;20.50;87.28;100841.09;5044750;28;20037;-66
2022/09/08 03:12:29;;;;;;;10.18;3.70;;;;;;;20.53;86.78;100838.19;5044469;28;20083;-66
2022/09/08 03:14:55;;;;;;;10.02;3.00;;;;;;;20.40;87.25;100840.94;5045245;28;20154;-66
2022/09/08 03:17:20;;;;;;;9.07;3.13;;;;;;;20.45;86.32;100844.97;5065619;28;20032;-66
2022/09/08 03:19:46;;;;;;;7.85;2.95;;;;;;;20.40;86.96;100839.13;5063900;28;20050;-66
2022/09/08 03:22:11;;;;;;;10.77;3.03;;;;;;;20.27;87.76;100835.66;5064712;28;20052;-66
2022/09/08 03:24:37;;;;;;;11.93;3.55;;;;;;;20.19;88.04;100845.13;5063247;28;20108;-65
2022/09/08 03:27:03;;;;;;;9.43;3.20;;;;;;;20.20;87.97;100843.31;5064585;28;20024;-67
2022/09/08 03:29:29;;;;;;;8.80;3.35;;;;;;;20.11;88.81;100847.53;5064153;28;20091;-66
2022/09/08 03:31:55;;;;;;;9.60;3.00;;;;;;;20.10;88.81;100840.44;5063707;28;20029;-65
2022/09/08 03:34:20;;;;;;;9.82;2.97;;;;;;;20.01;90.12;100836.66;5065362;28;20352;-68
2022/09/08 03:36:46;;;;;;;10.98;3.35;;;;;;;19.94;90.47;100836.22;5062848;28;20046;-67
2022/09/08 03:39:11;;;;;;;7.35;2.90;;;;;;;19.88;90.92;100836.69;5043654;28;20029;-66
2022/09/08 03:41:36;;;;;;;9.43;3.00;;;;;;;19.92;90.43;100839.97;5043353;28;20083;-66
2022/09/08 03:44:02;;;;;;;8.77;2.45;;;;;;;19.98;90.03;100836.00;5043975;28;20032;-66
2022/09/08 03:46:27;;;;;;;7.53;2.90;;;;;;;19.97;89.94;100844.97;5043629;28;20059;-67
2022/09/08 03:48:52;;;;;;;9.25;2.50;;;;;;;19.98;89.56;100836.00;5059112;28;20025;-67
2022/09/08 03:51:22;;;;;;;6.28;2.70;;;;;;;20.02;89.10;100841.00;5063392;28;20028;-67
2022/09/08 03:53:48;;;;;;;13.68;2.90;;;;;;;20.09;88.84;100849.44;5062601;28;20024;-67
2022/09/08 03:56:14;;;;;;;9.25;2.95;;;;;;;20.10;88.99;100848.47;5069452;28;20034;-67
2022/09/08 03:58:40;;;;;;;10.48;2.60;;;;;;;20.06;89.12;100844.31;5064607;28;20024;-66
2022/09/08 04:01:14;;;;;;;9.98;2.30;;;;;;;20.05;89.41;100858.69;5059112;28;20028;-66
2022/09/08 04:03:39;;;;;;;7.55;2.90;;;;;;;20.02;89.78;100857.06;5042387;28;20025;-65
2022/09/08 04:06:05;;;;;;;8.07;2.53;;;;;;;20.03;89.78;100861.47;5042770;28;20398;-66
2022/09/08 04:08:31;;;;;;;7.50;2.63;;;;;;;20.19;89.36;100869.19;5056992;28;20081;-65
2022/09/08 04:10:57;;;;;;;9.25;2.75;;;;;;;20.22;88.80;100862.75;5076141;28;20585;-66
2022/09/08 04:13:23;;;;;;;6.60;2.78;;;;;;;20.14;89.24;100874.03;5043043;28;20021;-66
2022/09/08 04:15:48;;;;;;;9.10;2.33;;;;;;;20.25;88.53;100859.84;5052495;28;20808;-68
2022/09/08 04:18:13;;;;;;;7.78;2.50;;;;;;;20.25;88.87;100853.63;5049291;28;20037;-67
2022/09/08 04:20:39;;;;;;;9.88;2.50;;;;;;;20.24;88.77;100847.44;5057536;28;20052;-68
2022/09/08 04:23:05;;;;;;;8.68;2.40;;;;;;;20.18;89.26;100834.53;5044417;28;20049;-67
2022/09/08 04:25:31;;;;;;;7.82;2.53;;;;;;;20.22;88.90;100830.66;5043647;28;20768;-66
2022/09/08 04:27:56;;;;;;;9.55;2.92;;;;;;;20.12;89.08;100827.81;5050436;28;20035;-66
2022/09/08 04:30:22;;;;;;;9.57;2.47;;;;;;;20.07;89.65;100821.97;5060078;28;20035;-67
2022/09/08 04:32:47;;;;;;;7.20;2.50;;;;;;;20.06;89.29;100825.59;5048145;28;20124;-66
2022/09/08 04:35:13;;;;;;;10.38;3.20;;;;;;;19.95;90.05;100827.22;5048566;28;20024;-66
2022/09/08 04:37:38;;;;;;;9.27;3.13;;;;;;;19.97;90.33;100821.78;5047018;28;20021;-67
2022/09/08 04:40:06;;;;;;;6.38;2.50;;;;;;;19.97;90.18;100819.09;5047601;28;20148;-66
2022/09/08 04:42:33;;;;;;;11.75;3.50;;;;;;;19.90;90.41;100824.03;5046783;28;20472;-63
2022/09/08 04:44:58;;;;;;;6.88;2.95;;;;;;;19.90;90.49;100834.72;5055885;28;20021;-66
2022/09/08 04:47:24;;;;;;;11.38;3.15;;;;;;;19.89;91.35;100843.72;5059059;28;20021;-66
2022/09/08 04:49:49;;;;;;;13.32;3.30;;;;;;;19.86;92.15;100854.63;5058029;28;20395;-66
2022/09/08 04:52:14;;;;;;;8.18;3.50;;;;;;;19.78;92.58;100841.81;5051118;28;20036;-66
2022/09/08 04:54:41;;;;;;;12.32;4.40;;;;;;;19.73;93.26;100837.78;5052687;28;20075;-66
2022/09/08 04:57:06;;;;;;;10.73;4.35;;;;;;;19.73;92.63;100849.34;5059961;28;20496;-66
2022/09/08 04:59:31;;;;;;;10.40;4.68;;;;;;;19.72;92.67;100836.97;5064439;28;20027;-66
2022/09/08 05:01:56;;;;;;;13.18;4.90;;;;;;;19.68;93.41;100835.44;5066976;28;20107;-65
2022/09/08 05:04:22;;;;;;;15.40;5.10;;;;;;;19.68;93.56;100830.97;5065790;28;20470;-66
2022/09/08 05:06:47;;;;;;;10.98;4.82;;;;;;;19.64;93.87;100837.50;5067541;28;20470;-66
2022/09/08 05:09:13;;;;;;;10.73;4.38;;;;;;;19.64;93.93;100837.50;5066118;28;20021;-65
2022/09/08 05:11:38;;;;;;;9.40;4.57;;;;;;;19.61;94.75;100837.72;5065348;28;20469;-65
2022/09/08 05:14:04;;;;;;;14.90;4.93;;;;;;;19.59;95.04;100834.31;5065827;28;20111;-66
2022/09/08 05:16:30;;;;;;;12.27;4.35;;;;;;;19.66;94.66;100827.53;5054554;28;20463;-65
2022/09/08 05:18:58;;;;;;;11.40;4.63;;;;;;;19.69;94.31;100839.84;5046166;28;20530;-64
2022/09/08 05:21:24;;;;;;;16.80;4.97;;;;;;;19.68;94.59;100833.63;5043895;28;20025;-67
2022/09/08 05:23:51;;;;;;;9.65;4.20;;;;;;;19.75;93.71;100835.88;5058319;28;20520;-69
2022/09/08 05:26:18;;;;;;;11.45;4.35;;;;;;;19.81;93.77;100841.59;5072860;28;20027;-70
2022/09/08 05:28:44;;;;;;;15.38;4.63;;;;;;;19.79;93.77;100837.34;5075971;28;20114;-68
2022/09/08 05:31:12;;;;;;;11.30;4.40;;;;;;;19.74;93.86;100835.00;5073639;28;20051;-69
2022/09/08 05:33:38;;;;;;;9.87;4.00;;;;;;;19.75;93.75;100835.88;5075159;28;20035;-69
2022/09/08 05:36:10;;;;;;;8.70;3.85;;;;;;;19.81;93.65;100830.09;5071938;28;20477;-69
2022/09/08 05:38:36;;;;;;;10.02;4.38;;;;;;;19.85;93.45;100836.91;5069683;28;20085;-69
2022/09/08 05:41:01;;;;;;;10.02;4.82;;;;;;;19.75;93.25;100831.34;5073522;28;20020;-69
2022/09/08 05:43:27;;;;;;;11.63;4.90;;;;;;;19.74;93.15;100828.81;5070386;28;20402;-69
2022/09/08 05:45:52;;;;;;;11.65;5.50;;;;;;;19.76;92.98;100821.53;5073429;28;20450;-69
2022/09/08 05:48:17;;;;;;;13.85;5.60;;;;;;;19.65;93.09;100835.66;5075102;28;20465;-67
2022/09/08 05:50:44;;;;;;;9.82;5.40;;;;;;;19.73;92.52;100827.09;5074865;28;20024;-69
2022/09/08 05:53:09;;;;;;;11.27;4.78;;;;;;;19.68;93.00;100835.44;5071318;28;20031;-70
2022/09/08 05:55:35;;;;;;;9.23;4.53;;;;;;;19.67;93.27;100841.78;5073442;28;20099;-69
2022/09/08 05:58:00;;;;;;;11.20;4.18;;;;;;;19.49;92.80;100835.94;5072240;28;20020;-70
2022/09/08 06:00:25;;;;;;;11.32;4.45;;;;;;;19.57;92.41;100837.09;5074930;28;20377;-67
2022/09/08 06:02:51;;;;;;;5.97;3.10;;;;;;;19.69;91.46;100830.00;5075136;28;20039;-69
2022/09/08 06:05:21;;;;;;;4.70;2.60;;;;;;;19.56;91.50;100831.84;5070755;28;20293;-69
2022/09/08 06:07:47;;;;;;;6.18;2.30;;;;;;;19.60;91.21;100835.16;5066839;28;20442;-67
2022/09/08 06:10:13;;;;;;;7.70;2.50;;;;;;;19.55;90.98;100838.16;5061863;28;20305;-66
2022/09/08 06:12:39;;;;;;;4.05;2.08;;;;;;;19.43;91.85;100838.09;5064857;28;20029;-66
2022/09/08 06:15:05;;;;;;;3.22;2.35;;;;;;;19.47;91.18;100837.88;5064755;28;20036;-67
2022/09/08 06:17:31;;;;;;;5.93;2.20;;;;;;;19.38;92.31;100839.41;5064892;28;20471;-67
2022/09/08 06:19:57;;;;;;;4.22;2.17;;;;;;;19.35;92.11;100835.09;5065489;28;20048;-66
2022/09/08 06:22:22;;;;;;;6.03;2.80;;;;;;;19.36;92.16;100834.16;5064101;28;20622;-66
2022/09/08 06:24:48;;;;;;;4.65;2.80;;;;;;;19.38;92.49;100832.22;5064808;28;20671;-67
2022/09/08 06:27:46;;;;;;;4.70;3.03;;;;;;;19.49;92.28;100827.91;5046927;28;20467;-67
2022/09/08 06:30:15;;;;;;;4.70;3.20;;;;;;;19.42;92.68;100827.53;5063239;28;20064;-66
2022/09/08 06:32:51;;;;;;;6.13;3.42;;;;;;;19.41;92.89;100832.00;5064661;28;20016;-66
2022/09/08 06:35:21;;;;;;;6.07;3.13;;;;;;;19.44;92.91;100829.09;5063718;28;20496;-68
2022/09/08 06:38:14;;;;;;;7.63;3.30;;;;;;;19.45;92.57;100836.16;5062464;28;20016;-70
2022/09/08 06:40:46;;;;;;;5.75;3.38;;;;;;;19.39;92.99;100836.59;5062465;28;20040;-66
2022/09/08 06:43:17;;;;;;;5.80;3.10;;;;;;;19.48;92.56;100834.22;5063010;28;20502;-66
2022/09/08 06:45:46;;;;;;;7.80;3.35;;;;;;;19.51;92.79;100839.38;5062759;28;20016;-67
2022/09/08 06:48:31;;;;;;;5.13;3.47;;;;;;;19.47;92.61;100840.56;5063846;28;20370;-67
2022/09/08 06:51:20;;;;;;;5.95;3.10;;;;;;;19.43;93.19;100840.78;5063787;28;20137;-67
2022/09/08 06:53:59;;;;;;;7.07;3.80;;;;;;;19.53;93.19;100845.44;5056877;28;20025;-67
2022/09/08 06:56:43;;;;;;;9.10;4.45;;;;;;;19.55;92.45;100840.84;5045044;28;20021;-68
2022/09/08 06:59:19;;;;;;;8.02;4.38;;;;;;;19.67;91.92;100839.09;5045631;28;20024;-70
2022/09/08 07:02:02;;;;;;;5.13;4.03;;;;;;;19.70;91.82;100837.06;5061466;28;20398;-68
2022/09/08 07:04:48;;;;;;;7.45;4.40;;;;;;;19.78;91.66;100835.66;5060804;28;20021;-68
2022/09/08 07:07:39;;;;;;;8.52;4.75;;;;;;;20.00;90.89;100840.25;5047787;28;20055;-69
2022/09/08 07:10:11;;;;;;;8.15;5.05;;;;;;;19.98;90.34;100838.69;5061714;28;20060;-68
2022/09/08 07:12:50;;;;;;;8.90;4.57;;;;;;;19.88;90.74;100847.38;5060949;28;20486;-70
2022/09/08 07:15:24;;;;;;;;;;;;;;;20.00;90.70;100842.94;5064123;28;20475;-67
2022/09/08 07:18:12;;;;;;;9.30;5.00;;;;;;;20.15;89.65;100838.31;5059347;28;20410;-69
2022/09/08 07:20:37;;;;;;;8.70;4.93;;;;;;;20.15;90.20;100840.97;5060073;28;20035;-67
2022/09/08 07:23:12;;;;;;;10.05;5.28;;;;;;;20.31;89.90;100831.78;5061352;28;20683;-69
2022/09/08 07:25:46;;;;;;;6.35;4.82;;;;;;;20.31;89.34;100834.44;5061553;28;20048;-67
2022/09/08 07:28:15;;;;;;;9.05;4.68;;;;;;;20.23;89.82;100834.19;5064683;28;20037;-68
2022/09/08 07:30:41;;;;;;;12.30;4.55;;;;;;;20.33;89.56;100840.56;5062628;28;20025;-67
2022/09/08 07:33:15;;;;;;;8.68;4.32;;;;;;;20.44;88.53;100840.56;5062162;28;20043;-67
2022/09/08 07:36:22;;;;;;;12.73;4.70;;;;;;;20.62;88.62;100834.78;5046339;28;20122;-68
2022/09/08 07:38:52;;;;;;;10.32;6.05;;;;;;;20.57;87.13;100842.31;5065187;28;20063;-68
2022/09/08 07:41:28;;;;;;;10.70;5.82;;;;;;;20.75;87.35;100826.69;5065264;28;20166;-67
2022/09/08 07:43:59;;;;;;;12.48;6.72;;;;;;;20.83;86.00;100826.09;5067176;28;20020;-68
2022/09/08 07:46:46;;;;;;;9.70;6.63;;;;;;;20.91;85.86;100833.53;5066897;28;20037;-67
2022/09/08 07:49:17;;;;;;;9.75;7.75;;;;;;;21.02;86.20;100827.34;5072690;28;20535;-67
2022/09/08 07:52:00;;;;;;;10.38;8.10;;;;;;;21.03;85.51;100843.28;5054339;28;20112;-68
2022/09/08 07:55:02;;;;;;;17.95;9.43;;;;;;;21.15;84.31;100830.75;5056736;28;20032;-68
2022/09/08 07:57:30;;;;;;;13.05;8.75;;;;;;;21.28;84.41;100827.09;5060940;28;20052;-67
2022/09/08 08:00:08;;;;;;;12.98;9.70;;;;;;;21.48;83.38;100829.97;5056838;28;20110;-70
2022/09/08 08:02:58;;;;;;;15.50;9.27;;;;;;;21.68;82.32;100837.28;5040719;28;20152;-70
2022/09/08 08:05:30;;;;;;;17.65;8.90;;;;;;;21.84;81.02;100836.91;5041167;28;20021;-68
2022/09/08 08:08:23;;;;;;;13.40;9.38;;;;;;;21.94;80.34;100847.72;5042064;28;20437;-66
2022/09/08 08:11:12;;;;;;;13.43;9.80;;;;;;;21.94;79.92;100855.75;5042856;28;20099;-67
2022/09/08 08:14:13;;;;;;;14.18;9.10;;;;;;;21.90;78.28;100851.63;5041046;28;20064;-67
2022/09/08 08:17:02;;;;;;;11.30;7.82;;;;;;;22.03;78.76;100862.19;5043265;28;20025;-67
2022/09/08 08:19:58;;;;;;;13.15;7.47;;;;;;;22.28;78.81;100853.94;5040581;28;20024;-68
2022/09/08 08:22:56;;;;;;;13.75;7.07;;;;;;;22.38;77.90;100856.69;5039604;28;20087;-66
2022/09/08 08:25:21;;;;;;;5.47;4.80;;;;;;;22.65;76.78;100858.06;5040089;28;20033;-69
2022/09/08 08:27:52;;;;;;;7.93;5.00;;;;;;;22.77;75.30;100848.94;5042968;28;20060;-68
2022/09/08 08:30:19;;;;;;;7.68;4.80;;;;;;;23.00;75.58;100864.94;5048628;28;20028;-66
2022/09/08 08:33:02;;;;;;;8.75;5.03;;;;;;;22.94;74.37;100862.75;5062082;28;20028;-64
2022/09/08 08:35:35;;;;;;;6.15;4.80;;;;;;;22.88;73.86;100869.53;5060946;28;20521;-65
2022/09/08 08:38:02;;;;;;;7.40;4.80;;;;;;;22.69;75.04;100868.41;5062249;28;20032;-65
2022/09/08 08:40:36;;;;;;;11.20;5.68;;;;;;;22.62;75.14;100866.38;5055850;28;20025;-64
2022/09/08 08:43:19;;;;;;;8.15;4.90;;;;;;;22.49;74.65;100871.91;5041377;28;20028;-66
2022/09/08 08:46:18;;;;;;;5.57;4.63;;;;;;;22.52;74.49;100868.97;5041684;28;20110;-65
2022/09/08 08:49:01;;;;;;;5.60;4.50;;;;;;;22.58;74.70;100866.63;5041434;28;20044;-64
2022/09/08 08:51:48;;;;;;;10.25;5.22;;;;;;;22.91;73.83;100871.91;5040990;28;20029;-68
2022/09/08 08:55:08;;;;;;;4.95;4.40;;;;;;;23.20;73.12;100865.84;5041075;28;20124;-66
2022/09/08 08:58:11;;;;;;;8.27;4.35;;;;;;;23.07;71.91;100873.28;5040659;28;20044;-65
2022/09/08 09:00:43;;;;;;;9.15;3.83;;;;;;;22.97;72.02;100876.75;5060198;28;20167;-65
2022/09/08 09:03:39;;;;;;;4.72;3.35;;;;;;;22.89;71.33;100881.09;5040603;28;20051;-66
2022/09/08 09:06:24;;;;;;;9.98;3.65;;;;;;;22.96;71.65;100880.44;5041391;28;20387;-68
2022/09/08 09:08:56;;;;;;;8.65;3.42;;;;;;;22.91;71.86;100871.09;5041527;28;20079;-65
2022/09/08 09:11:42;;;;;;;5.40;3.00;;;;;;;22.92;70.94;100865.59;5040706;28;20053;-65
2022/09/08 09:15:00;;;;;;;3.75;2.17;;;;;;;23.31;70.22;100858.69;5045951;28;20025;-65
2022/09/08 09:18:00;;;;;;;5.45;2.78;;;;;;;23.22;69.50;100876.47;5054126;28;20115;-68
2022/09/08 09:20:37;;;;;;;6.65;2.78;;;;;;;23.41;68.84;100873.03;5070652;28;20860;-65
2022/09/08 09:23:25;;;;;;;6.70;2.60;;;;;;;23.35;67.68;100860.97;5054340;28;20124;-67
2022/09/08 09:25:58;;;;;;;7.63;2.60;;;;;;;23.22;68.31;100869.28;5044650;28;20029;-66
2022/09/08 09:29:05;;;;;;;4.35;2.05;;;;;;;22.99;69.19;100862.38;5044361;28;20479;-63
2022/09/08 09:32:04;;;;;;;6.50;2.38;;;;;;;23.44;68.50;100853.97;5043978;28;20036;-65
2022/09/08 09:34:39;;;;;;;7.38;2.55;;;;;;;23.61;69.35;100859.66;5081601;28;20088;-65
2022/09/08 09:37:22;;;;;;;6.90;2.60;;;;;;;23.67;67.95;100861.81;5076144;28;20033;-66
2022/09/08 09:40:23;;;;;;;3.67;2.47;;;;;;;23.59;68.70;100864.31;5046275;28;20036;-66
2022/09/08 09:43:18;;;;;;;5.53;2.20;;;;;;;23.49;68.90;100858.94;5050032;28;20024;-65
2022/09/08 09:46:08;;;;;;;5.60;1.90;;;;;;;23.10;68.70;100859.59;5070729;28;20035;-66
2022/09/08 09:48:39;;;;;;;5.82;1.80;;;;;;;23.04;69.18;100868.19;5072910;28;20119;-64
2022/09/08 09:51:07;;;;;;;9.25;2.10;;;;;;;23.03;68.93;100864.63;5069780;28;20029;-66
2022/09/08 09:54:00;;;;;;;6.95;1.98;;;;;;;22.93;68.46;100863.72;5047640;28;20032;-65
2022/09/08 09:57:08;;;;;;;6.60;1.95;;;;;;;22.89;70.35;100860.47;5043478;28;20436;-63
2022/09/08 09:59:47;;;;;;;4.70;1.98;;;;;;;22.91;68.60;100865.72;5043777;28;20067;-66
2022/09/08 10:02:24;;;;;;;4.43;2.13;;;;;;;23.11;68.05;100863.97;5047901;28;20572;-64
2022/09/08 10:05:08;;;;;;;9.82;2.30;;;;;;;23.19;67.83;100868.69;5065553;28;20032;-65
2022/09/08 10:07:59;;;;;;;7.25;2.80;;;;;;;22.99;69.41;100863.19;5063072;28;20029;-66
2022/09/08 10:10:32;;;;;;;9.50;2.58;;;;;;;23.28;67.84;100857.13;5064924;28;20395;-65
2022/09/08 10:13:09;;;;;;;4.57;2.42;;;;;;;23.38;67.11;100859.88;5056045;28;20299;-64
2022/09/08 10:16:01;;;;;;;5.53;1.98;;;;;;;23.57;67.60;100867.16;5044861;28;20024;-64
2022/09/08 10:18:48;;;;;;;10.48;2.90;;;;;;;23.60;67.34;100869.56;5043942;28;20052;-64
2022/09/08 10:21:51;;;;;;;7.90;2.30;;;;;;;23.77;66.29;100863.66;5066496;28;20036;-65
2022/09/08 10:24:35;;;;;;;9.85;2.30;;;;;;;23.46;66.45;100875.31;5053296;28;20101;-63
2022/09/08 10:27:25;;;;;;;6.45;1.67;;;;;;;23.32;66.77;100869.31;5073603;28;20098;-65
2022/09/08 10:30:27;;;;;;;6.93;1.98;;;;;;;23.13;67.23;100875.44;5073396;28;20176;-65
2022/09/08 10:33:11;;;;;;;6.85;1.80;;;;;;;23.12;68.28;100879.13;5067825;28;20020;-67
2022/09/08 10:35:47;;;;;;;7.10;2.10;;;;;;;23.17;68.12;100868.81;5059479;28;20579;-66
2022/09/08 10:38:27;;;;;;;6.90;1.52;;;;;;;23.54;66.24;100866.59;5063264;28;20056;-65
2022/09/08 10:41:01;;;;;;;5.90;1.50;;;;;;;23.77;64.50;100869.88;5065185;28;20765;-64
2022/09/08 10:43:35;;;;;;;3.08;1.35;;;;;;;24.08;63.82;100869.78;5065256;28;20034;-65
2022/09/08 10:46:18;;;;;;;7.30;1.52;;;;;;;24.21;63.22;100863.31;5073904;28;20027;-65
2022/09/08 10:49:08;;;;;;;5.43;1.50;;;;;;;24.46;62.49;100861.91;5070652;28;20025;-65
2022/09/08 10:51:36;;;;;;;10.98;1.92;;;;;;;24.79;62.64;100860.69;5067618;28;20040;-65
2022/09/08 10:54:34;;;;;;;8.48;1.83;;;;;;;25.21;61.14;100860.31;5075418;28;20024;-65
2022/09/08 10:57:00;;;;;;;5.40;1.70;;;;;;;24.92;60.82;100858.56;5067102;28;20048;-65
2022/09/08 10:59:40;;;;;;;9.60;2.03;;;;;;;24.82;60.21;100860.41;5071220;28;20386;-64
2022/09/08 11:02:12;;;;;;;8.25;1.88;;;;;;;24.90;60.89;100863.28;5070639;28;20060;-65
2022/09/08 11:04:58;;;;;;;6.20;2.00;;;;;;;24.86;60.10;100865.34;5061601;28;20027;-71
2022/09/08 11:07:51;;;;;;;8.27;1.98;;;;;;;24.67;59.69;100862.69;5032651;28;21105;-64
2022/09/08 11:10:37;;;;;;;8.38;2.03;;;;;;;24.84;58.87;100856.56;5045050;28;20076;-69
2022/09/08 11:13:22;;;;;;;11.63;2.10;;;;;;;25.02;57.87;100861.25;5065171;28;20068;-62
2022/09/08 11:16:19;;;;;;;5.20;1.60;;;;;;;24.79;57.54;100856.16;5063177;28;20020;-65
2022/09/08 11:19:01;;;;;;;11.70;2.13;;;;;;;24.83;56.75;100851.34;5063458;28;20147;-69
2022/09/08 11:21:54;;;;;;;7.95;2.50;;;;;;;24.72;58.02;100849.66;5053804;28;20021;-64
2022/09/08 11:24:37;;;;;;;8.93;2.10;;;;;;;24.82;58.50;100855.88;5042121;28;20021;-67
2022/09/08 11:27:06;;;;;;;7.25;1.55;;;;;;;24.95;58.10;100860.13;5048782;28;20028;-67
2022/09/08 11:29:36;;;;;;;6.68;2.05;;;;;;;25.13;56.71;100851.28;5064112;28;20031;-66
2022/09/08 11:32:14;;;;;;;12.32;2.45;;;;;;;25.26;56.46;100850.94;5062338;28;20039;-67
2022/09/08 11:35:00;;;;;;;10.30;2.45;;;;;;;25.36;56.28;100857.13;5063915;28;20036;-68
2022/09/08 11:37:34;;;;;;;10.30;2.80;;;;;;;25.43;55.84;100857.38;5060476;28;20438;-67
2022/09/08 11:40:36;;;;;;;9.13;2.40;;;;;;;25.05;55.06;100849.31;5064158;28;20032;-65
2022/09/08 11:43:04;;;;;;;11.07;2.25;;;;;;;25.41;54.98;100848.59;5052668;28;20094;-65
2022/09/08 11:45:49;;;;;;;6.75;2.30;;;;;;;25.23;55.46;100852.91;5043780;28;20029;-67
2022/09/08 11:48:24;;;;;;;8.70;2.10;;;;;;;25.10;56.05;100847.00;5046742;28;20033;-66
2022/09/08 11:51:14;;;;;;;13.35;2.40;;;;;;;25.29;56.08;100846.09;5043783;28;20727;-66
2022/09/08 11:53:58;;;;;;;8.60;2.17;;;;;;;25.18;54.72;100849.84;5042680;28;20048;-67
2022/09/08 11:56:37;;;;;;;5.07;1.70;;;;;;;25.08;54.84;100843.63;5043117;28;20025;-66
2022/09/08 11:59:35;;;;;;;5.68;1.50;;;;;;;25.03;53.16;100840.50;5042898;28;20029;-66